createdAt,value
2022-09-23T00:00:11.578Z,1.73
2022-09-23T00:03:03.415Z,1.45
2022-09-23T00:05:38.277Z,2.53
2022-09-23T00:08:11.978Z,2.72
2022-09-23T00:16:16.406Z,1.63
2022-09-23T00:18:49.685Z,1.80
2022-09-23T00:21:25.453Z,2.53
2022-09-23T00:23:57.174Z,2.25
2022-09-23T00:26:28.951Z,1.85
2022-09-23T00:29:00.691Z,1.52
2022-09-23T00:31:32.810Z,1.70
2022-09-23T00:34:05.054Z,1.83
2022-09-23T00:36:40.636Z,2.15
2022-09-23T00:39:12.597Z,1.80
2022-09-23T00:41:44.656Z,1.58
2022-09-23T00:44:48.397Z,2.22
2022-09-23T00:47:26.836Z,1.15
2022-09-23T00:50:09.215Z,1.85
2022-09-23T00:52:46.637Z,1.67
2022-09-23T00:55:39.458Z,1.75
2022-09-23T00:58:15.795Z,1.20
2022-09-23T01:01:30.096Z,1.50
2022-09-23T01:04:02.375Z,1.48
2022-09-23T01:06:34.123Z,1.45
2022-09-23T01:09:08.917Z,1.70
2022-09-23T01:11:47.195Z,1.70
2022-09-23T01:14:40.696Z,1.80
2022-09-23T01:17:17.556Z,2.92
2022-09-23T01:20:21.516Z,1.70
2022-09-23T01:23:01.158Z,1.92
2022-09-23T01:26:04.836Z,1.05
2022-09-23T01:28:50.119Z,1.33
2022-09-23T01:31:36.038Z,1.95
2022-09-23T01:34:14.274Z,1.77
2022-09-23T01:36:51.418Z,1.73
2022-09-23T01:39:30.763Z,1.98
2022-09-23T01:42:08.405Z,2.20
2022-09-23T01:44:47.537Z,1.33
2022-09-23T01:47:26.595Z,1.58
2022-09-23T01:50:03.597Z,1.42
2022-09-23T01:52:42.917Z,1.60
2022-09-23T01:55:21.639Z,1.63
2022-09-23T01:57:59.791Z,1.52
2022-09-23T02:00:35.200Z,1.35
2022-09-23T02:03:15.678Z,1.98
2022-09-23T02:05:51.056Z,1.88
2022-09-23T02:08:27.997Z,2.33
2022-09-23T02:11:04.886Z,1.52
2022-09-23T02:13:44.156Z,1.48
2022-09-23T02:16:22.101Z,1.20
2022-09-23T02:18:59.502Z,1.30
2022-09-23T02:21:38.517Z,1.98
2022-09-23T02:24:15.697Z,1.08
2022-09-23T02:26:53.275Z,1.05
2022-09-23T02:29:31.476Z,1.75
2022-09-23T02:32:16.417Z,2.30
2022-09-23T02:35:00.556Z,1.38
2022-09-23T02:37:40.817Z,1.88
2022-09-23T02:40:23.880Z,1.27
2022-09-23T02:43:08.376Z,1.15
2022-09-23T02:45:40.865Z,1.25
2022-09-23T02:48:19.516Z,1.35
2022-09-23T02:50:54.657Z,1.52
2022-09-23T02:53:27.303Z,1.27
2022-09-23T02:55:59.455Z,1.00
2022-09-23T02:58:32.957Z,0.93
2022-09-23T03:01:16.861Z,1.95
2022-09-23T03:03:54.775Z,1.25
2022-09-23T03:06:35.275Z,1.33
2022-09-23T03:09:13.536Z,1.45
2022-09-23T03:11:49.823Z,1.38
2022-09-23T03:14:29.825Z,1.02
2022-09-23T03:17:06.504Z,1.25
2022-09-23T03:19:43.577Z,1.75
2022-09-23T03:22:24.779Z,1.55
2022-09-23T03:25:01.835Z,1.30
2022-09-23T03:27:36.056Z,1.30
2022-09-23T03:30:10.376Z,1.10
2022-09-23T03:32:45.480Z,1.65
2022-09-23T03:35:17.856Z,1.42
2022-09-23T03:37:57.155Z,0.80
2022-09-23T03:40:32.902Z,1.42
2022-09-23T03:43:05.375Z,1.33
2022-09-23T03:45:37.910Z,0.93
2022-09-23T03:48:09.800Z,1.25
2022-09-23T03:50:41.595Z,1.50
2022-09-23T03:53:18.208Z,0.75
2022-09-23T03:55:49.918Z,1.35
2022-09-23T03:58:21.667Z,1.17
2022-09-23T04:00:55.012Z,1.35
2022-09-23T04:03:29.515Z,1.27
2022-09-23T04:06:01.127Z,1.52
2022-09-23T04:08:35.439Z,1.92
2022-09-23T04:11:08.296Z,1.17
2022-09-23T04:13:40.723Z,1.30
2022-09-23T04:16:12.250Z,1.88
2022-09-23T04:18:43.956Z,1.92
2022-09-23T04:21:15.435Z,1.30
2022-09-23T04:23:50.016Z,1.27
2022-09-23T04:26:22.215Z,1.27
2022-09-23T04:28:53.876Z,1.95
2022-09-23T04:31:25.920Z,1.83
2022-09-23T04:33:58.395Z,1.58
2022-09-23T04:36:30.581Z,2.55
2022-09-23T04:39:05.829Z,1.70
2022-09-23T04:41:37.456Z,2.60
2022-09-23T04:44:09.220Z,1.52
2022-09-23T04:46:41.558Z,1.23
2022-09-23T04:49:13.317Z,2.30
2022-09-23T04:51:45.844Z,1.35
2022-09-23T04:54:20.227Z,1.70
2022-09-23T04:56:51.716Z,1.67
2022-09-23T04:59:23.936Z,1.88
2022-09-23T05:01:55.579Z,2.05
2022-09-23T05:04:27.658Z,1.80
2022-09-23T05:07:02.882Z,1.90
2022-09-23T05:09:38.756Z,1.65
2022-09-23T05:12:10.999Z,1.77
2022-09-23T05:14:43.055Z,1.90
2022-09-23T05:17:14.985Z,1.30
2022-09-23T05:19:47.095Z,1.00
2022-09-23T05:22:18.897Z,2.22
2022-09-23T05:24:53.661Z,1.80
2022-09-23T05:27:25.696Z,1.55
2022-09-23T05:30:11.818Z,1.75
2022-09-23T05:32:44.937Z,1.33
2022-09-23T05:35:17.057Z,1.70
2022-09-23T05:37:48.957Z,1.63
2022-09-23T05:40:23.721Z,2.20
2022-09-23T05:42:56.305Z,1.75
2022-09-23T05:45:43.356Z,1.65
2022-09-23T05:48:15.355Z,1.77
2022-09-23T05:50:53.619Z,1.10
2022-09-23T05:53:25.576Z,2.03
2022-09-23T05:56:01.252Z,1.40
2022-09-23T05:58:33.058Z,1.88
2022-09-23T06:01:13.348Z,1.20
2022-09-23T06:03:45.275Z,2.50
2022-09-23T06:06:18.540Z,2.25
2022-09-23T06:08:51.117Z,2.22
2022-09-23T06:11:25.937Z,1.30
2022-09-23T06:14:01.394Z,2.47
2022-09-23T06:16:35.948Z,1.67
2022-09-23T06:19:08.477Z,1.95
2022-09-23T06:21:42.077Z,2.03
2022-09-23T06:24:18.914Z,1.77
2022-09-23T06:26:56.035Z,1.02
2022-09-23T06:29:28.417Z,2.60
2022-09-23T06:32:00.561Z,2.30
2022-09-23T06:34:41.437Z,1.10
2022-09-23T06:37:20.680Z,1.00
2022-09-23T06:39:55.018Z,2.85
2022-09-23T06:42:29.677Z,1.45
2022-09-23T06:45:02.418Z,1.83
2022-09-23T06:47:34.596Z,1.92
2022-09-23T06:50:06.598Z,1.92
2022-09-23T06:52:38.717Z,1.30
2022-09-23T06:55:11.763Z,1.35
2022-09-23T06:57:46.576Z,2.05
2022-09-23T07:00:19.422Z,1.60
2022-09-23T07:02:51.853Z,1.30
2022-09-23T07:05:23.834Z,2.05
2022-09-23T07:07:56.371Z,1.33
2022-09-23T07:10:29.430Z,1.30
2022-09-23T07:13:07.711Z,1.33
2022-09-23T07:15:39.696Z,3.08
2022-09-23T07:18:11.772Z,1.90
2022-09-23T07:20:43.572Z,1.23
2022-09-23T07:23:16.343Z,1.75
2022-09-23T07:25:51.992Z,1.30
2022-09-23T07:28:28.241Z,1.50
2022-09-23T07:31:01.040Z,1.40
2022-09-23T07:33:33.708Z,1.70
2022-09-23T07:36:10.759Z,2.70
2022-09-23T07:38:45.679Z,1.35
2022-09-23T07:41:20.820Z,1.25
2022-09-23T07:43:59.223Z,1.88
2022-09-23T07:46:33.147Z,0.95
2022-09-23T07:49:05.726Z,1.92
2022-09-23T07:51:39.321Z,1.13
2022-09-23T07:54:15.598Z,1.95
2022-09-23T07:56:48.649Z,2.10
2022-09-23T07:59:23.715Z,1.85
2022-09-23T08:01:56.930Z,1.83
2022-09-23T08:04:31.162Z,1.52
2022-09-23T08:07:05.482Z,1.17
2022-09-23T08:09:41.722Z,1.90
2022-09-23T08:12:16.356Z,1.60
2022-09-23T08:14:51.145Z,2.00
2022-09-23T08:17:23.023Z,1.45
2022-09-23T08:19:55.020Z,1.27
2022-09-23T08:22:26.634Z,1.20
2022-09-23T08:24:58.591Z,1.92
2022-09-23T08:27:30.131Z,1.05
2022-09-23T08:30:04.573Z,1.40
2022-09-23T08:32:36.098Z,1.13
2022-09-23T08:35:08.616Z,0.90
2022-09-23T08:37:40.554Z,0.80
2022-09-23T08:40:13.299Z,0.70
2022-09-23T08:42:49.353Z,0.85
2022-09-23T08:45:27.074Z,1.20
2022-09-23T08:48:09.588Z,0.80
2022-09-23T08:50:46.510Z,1.20
2022-09-23T08:53:24.862Z,1.38
2022-09-23T08:55:58.822Z,0.70
2022-09-23T08:58:45.894Z,0.93
2022-09-23T09:01:25.112Z,1.60
2022-09-23T09:03:59.538Z,0.73
2022-09-23T09:06:51.855Z,0.93
2022-09-23T09:09:29.964Z,0.82
2022-09-23T09:12:07.943Z,0.50
2022-09-23T09:14:46.484Z,0.77
2022-09-23T09:17:34.387Z,0.52
2022-09-23T09:20:17.118Z,0.80
2022-09-23T09:22:57.927Z,0.70
2022-09-23T09:25:48.202Z,0.80
2022-09-23T09:28:28.542Z,0.80
2022-09-23T09:31:03.265Z,0.57
2022-09-23T09:33:45.038Z,0.85
2022-09-23T09:36:26.932Z,0.70
2022-09-23T09:38:58.888Z,0.52
2022-09-23T09:41:31.666Z,0.50
2022-09-23T09:44:14.825Z,0.77
2022-09-23T09:46:59.393Z,0.80
2022-09-23T09:49:44.378Z,0.70
2022-09-23T09:52:25.757Z,0.60
2022-09-23T09:55:01.670Z,0.30
2022-09-23T09:57:40.089Z,0.40
2022-09-23T10:00:38.430Z,0.52
2022-09-23T10:03:27.945Z,0.57
2022-09-23T10:06:02.456Z,0.35
2022-09-23T10:08:35.692Z,0.52
2022-09-23T10:11:09.752Z,0.50
2022-09-23T10:13:41.506Z,0.40
2022-09-23T10:16:13.413Z,0.68
2022-09-23T10:18:57.123Z,0.47
2022-09-23T10:21:37.872Z,0.40
2022-09-23T10:24:11.272Z,0.40
2022-09-23T10:26:48.594Z,0.35
2022-09-23T10:29:27.560Z,0.30
2022-09-23T10:32:28.897Z,0.30
2022-09-23T10:35:05.265Z,0.73
2022-09-23T10:37:43.256Z,0.65
2022-09-23T10:40:35.103Z,0.30
2022-09-23T10:43:47.029Z,0.73
2022-09-23T10:46:42.979Z,0.25
2022-09-23T10:49:41.304Z,0.30
2022-09-23T10:52:47.261Z,0.70
2022-09-23T10:55:45.940Z,0.50
2022-09-23T10:58:44.570Z,0.30
2022-09-23T11:01:32.536Z,0.55
2022-09-23T11:04:36.918Z,0.60
2022-09-23T11:07:24.156Z,0.50
2022-09-23T11:10:45.399Z,0.70
2022-09-23T11:13:33.845Z,0.40
2022-09-23T11:16:17.631Z,0.38
2022-09-23T11:19:22.437Z,0.28
2022-09-23T11:22:07.393Z,0.40
2022-09-23T11:25:06.681Z,0.32
2022-09-23T11:28:00.401Z,0.30
2022-09-23T11:30:41.153Z,0.38
2022-09-23T11:33:27.759Z,0.45
2022-09-23T11:36:05.498Z,0.30
2022-09-23T11:38:41.496Z,0.40
2022-09-23T11:41:21.881Z,0.55
2022-09-23T11:44:04.713Z,0.20
2022-09-23T11:46:42.545Z,0.30
2022-09-23T11:49:20.159Z,0.50
2022-09-23T11:52:06.304Z,0.40
2022-09-23T11:54:46.722Z,0.30
2022-09-23T11:57:27.325Z,0.35
2022-09-23T12:00:06.130Z,0.35
2022-09-23T12:03:01.529Z,0.38
2022-09-23T12:05:42.761Z,0.50
2022-09-23T12:08:22.797Z,0.50
2022-09-23T12:11:01.831Z,0.82
2022-09-23T12:13:43.194Z,0.60
2022-09-23T12:16:54.132Z,0.40
2022-09-23T12:19:52.020Z,0.50
2022-09-23T12:22:37.737Z,0.32
2022-09-23T12:25:30.209Z,0.30
2022-09-23T12:28:08.225Z,0.20
2022-09-23T12:30:42.526Z,0.30
2022-09-23T12:33:26.758Z,0.68
2022-09-23T12:36:08.097Z,0.30
2022-09-23T12:38:43.662Z,0.30
2022-09-23T12:41:27.327Z,0.20
2022-09-23T12:44:03.184Z,0.40
2022-09-23T12:46:35.460Z,0.40
2022-09-23T12:49:27.462Z,0.50
2022-09-23T12:52:28.156Z,0.50
2022-09-23T12:55:57.387Z,1.00
2022-09-23T12:58:41.532Z,0.40
2022-09-23T13:01:27.406Z,0.68
2022-09-23T13:04:15.041Z,0.45
2022-09-23T13:06:59.233Z,0.40
2022-09-23T13:09:34.451Z,0.40
2022-09-23T13:12:12.813Z,0.32
2022-09-23T13:14:50.732Z,0.40
2022-09-23T13:17:33.263Z,0.57
2022-09-23T13:20:09.153Z,0.60
2022-09-23T13:23:07.454Z,0.47
2022-09-23T13:25:46.249Z,0.80
2022-09-23T13:28:32.359Z,0.30
2022-09-23T13:31:09.029Z,0.30
2022-09-23T13:33:46.014Z,0.77
2022-09-23T13:36:21.432Z,0.75
2022-09-23T13:38:56.675Z,0.52
2022-09-23T13:41:47.379Z,0.80
2022-09-23T13:44:22.234Z,0.30
2022-09-23T13:46:58.432Z,0.40
2022-09-23T13:49:49.341Z,0.30
2022-09-23T13:52:30.074Z,0.57
2022-09-23T13:55:04.612Z,0.40
2022-09-23T13:57:38.078Z,0.30
2022-09-23T14:00:21.597Z,0.52
2022-09-23T14:02:54.232Z,0.43
2022-09-23T14:05:28.557Z,0.38
2022-09-23T14:08:00.794Z,0.50
2022-09-23T14:11:05.426Z,0.30
2022-09-23T14:13:44.817Z,0.47
2022-09-23T14:16:21.609Z,0.47
2022-09-23T14:18:58.717Z,0.40
2022-09-23T14:21:35.396Z,0.30
2022-09-23T14:24:18.919Z,0.70
2022-09-23T14:26:58.016Z,0.22
2022-09-23T14:29:34.122Z,0.50
2022-09-23T14:32:10.931Z,0.38
2022-09-23T14:34:48.466Z,0.40
2022-09-23T14:37:40.940Z,1.27
2022-09-23T14:40:17.751Z,0.50
2022-09-23T14:43:03.055Z,0.35
2022-09-23T14:45:38.217Z,0.57
2022-09-23T14:48:13.546Z,0.60
2022-09-23T14:50:51.599Z,0.52
2022-09-23T14:53:42.284Z,0.68
2022-09-23T14:56:20.584Z,0.30
2022-09-23T14:59:00.890Z,0.52
2022-09-23T15:01:39.237Z,0.45
2022-09-23T15:04:20.450Z,0.38
2022-09-23T15:06:57.584Z,0.20
2022-09-23T15:09:33.570Z,0.30
2022-09-23T15:12:10.180Z,0.30
2022-09-23T15:14:49.335Z,0.57
2022-09-23T15:17:34.256Z,0.28
2022-09-23T15:20:09.579Z,0.70
2022-09-23T15:22:48.594Z,0.30
2022-09-23T15:25:24.811Z,0.45
2022-09-23T15:28:23.855Z,0.38
2022-09-23T15:30:58.392Z,0.82
2022-09-23T15:33:31.007Z,0.20
2022-09-23T15:36:03.545Z,0.40
2022-09-23T15:38:35.706Z,0.20
2022-09-23T15:41:07.828Z,0.57
2022-09-23T15:43:40.171Z,0.50
2022-09-23T15:46:19.896Z,0.50
2022-09-23T15:49:05.291Z,0.47
2022-09-23T15:51:40.694Z,1.10
2022-09-23T15:54:15.129Z,0.43
2022-09-23T15:57:05.713Z,0.73
2022-09-23T15:59:44.245Z,0.45
2022-09-23T16:02:24.870Z,0.30
2022-09-23T16:04:57.504Z,0.30
2022-09-23T16:07:29.453Z,0.63
2022-09-23T16:10:01.607Z,0.47
2022-09-23T16:12:33.599Z,0.80
2022-09-23T16:15:05.803Z,0.60
2022-09-23T16:17:40.432Z,0.75
2022-09-23T16:20:15.678Z,0.30
2022-09-23T16:22:52.704Z,0.82
2022-09-23T16:25:30.552Z,0.55
2022-09-23T16:28:02.620Z,0.80
2022-09-23T16:30:37.529Z,0.50
2022-09-23T16:33:12.044Z,0.57
2022-09-23T16:35:44.225Z,0.70
2022-09-23T16:38:28.201Z,0.50
2022-09-23T16:41:03.249Z,0.35
2022-09-23T16:43:39.850Z,0.93
2022-09-23T16:46:13.523Z,0.30
2022-09-23T16:48:52.248Z,0.85
2022-09-23T16:51:26.838Z,0.70
2022-09-23T16:54:00.269Z,0.50
2022-09-23T16:56:32.285Z,0.65
2022-09-23T16:59:04.028Z,0.70
2022-09-23T17:01:48.168Z,0.80
2022-09-23T17:04:22.924Z,0.47
2022-09-23T17:06:56.685Z,0.75
2022-09-23T17:09:34.065Z,0.88
2022-09-23T17:12:21.707Z,0.80
2022-09-23T17:14:53.640Z,0.70
2022-09-23T17:17:26.050Z,0.95
2022-09-23T17:20:00.278Z,0.88
2022-09-23T17:22:33.707Z,0.95
2022-09-23T17:25:05.349Z,1.20
2022-09-23T17:27:37.447Z,0.80
2022-09-23T17:30:10.498Z,1.27
2022-09-23T17:32:42.266Z,1.23
2022-09-23T17:35:16.953Z,0.90
2022-09-23T17:37:49.744Z,0.80
2022-09-23T17:40:21.377Z,1.10
2022-09-23T17:42:53.458Z,1.75
2022-09-23T17:45:25.074Z,1.08
2022-09-23T17:47:58.035Z,0.80
2022-09-23T17:50:34.455Z,1.52
2022-09-23T17:53:07.215Z,1.08
2022-09-23T17:55:38.756Z,0.70
2022-09-23T17:58:10.523Z,0.93
2022-09-23T18:00:42.074Z,1.30
2022-09-23T18:03:15.173Z,1.02
2022-09-23T18:05:51.516Z,1.27
2022-09-23T18:08:23.835Z,1.23
2022-09-23T18:10:55.337Z,1.30
2022-09-23T18:13:27.380Z,1.73
2022-09-23T18:15:58.889Z,1.02
2022-09-23T18:18:30.683Z,1.00
2022-09-23T18:21:07.863Z,1.98
2022-09-23T18:23:40.170Z,1.73
2022-09-23T18:26:17.423Z,1.33
2022-09-23T18:28:49.542Z,1.58
2022-09-23T18:31:21.283Z,1.45
2022-09-23T18:33:54.023Z,0.93
2022-09-23T18:36:29.301Z,1.30
2022-09-23T18:39:01.404Z,1.42
2022-09-23T18:41:34.145Z,1.70
2022-09-23T18:44:07.028Z,1.52
2022-09-23T18:46:39.142Z,1.77
2022-09-23T18:49:24.324Z,1.70
2022-09-23T18:52:00.403Z,1.92
2022-09-23T18:54:32.844Z,1.35
2022-09-23T18:57:05.485Z,1.58
2022-09-23T18:59:37.947Z,1.15
2022-09-23T19:02:09.923Z,1.42
2022-09-23T19:04:42.338Z,1.75
2022-09-23T19:07:17.297Z,1.40
2022-09-23T19:09:50.914Z,1.00
2022-09-23T19:12:23.334Z,2.17
2022-09-23T19:14:55.854Z,1.55
2022-09-23T19:17:27.955Z,1.23
2022-09-23T19:20:00.108Z,2.03
2022-09-23T19:22:34.836Z,1.33
2022-09-23T19:25:07.867Z,2.22
2022-09-23T19:27:40.422Z,1.98
2022-09-23T19:30:13.925Z,1.63
2022-09-23T19:32:49.209Z,2.03
2022-09-23T19:35:21.428Z,1.45
2022-09-23T19:37:57.840Z,2.05
2022-09-23T19:40:30.028Z,2.10
2022-09-23T19:43:02.508Z,1.75
2022-09-23T19:45:36.151Z,1.63
2022-09-23T19:48:09.390Z,2.17
2022-09-23T19:50:42.092Z,1.83
2022-09-23T19:53:16.910Z,1.25
2022-09-23T19:55:49.090Z,1.52
2022-09-23T19:58:24.052Z,1.85
2022-09-23T20:00:56.757Z,1.67
2022-09-23T20:03:30.990Z,1.73
2022-09-23T20:06:03.151Z,2.33
2022-09-23T20:08:38.990Z,1.98
2022-09-23T20:11:16.208Z,2.15
2022-09-23T20:13:49.652Z,2.08
2022-09-23T20:16:23.149Z,2.45
2022-09-23T20:18:56.774Z,2.58
2022-09-23T20:21:29.565Z,1.33
2022-09-23T20:24:05.919Z,2.17
2022-09-23T20:26:50.557Z,1.15
2022-09-23T20:29:22.690Z,1.75
2022-09-23T20:31:55.024Z,2.05
2022-09-23T20:34:27.231Z,2.45
2022-09-23T20:37:01.451Z,2.10
2022-09-23T20:39:36.194Z,2.03
2022-09-23T20:42:09.514Z,0.98
2022-09-23T20:44:45.256Z,1.40
2022-09-23T20:47:19.210Z,1.60
2022-09-23T20:49:51.159Z,2.03
2022-09-23T20:52:23.470Z,1.15
2022-09-23T20:54:59.211Z,1.83
2022-09-23T20:57:31.950Z,1.17
2022-09-23T21:00:05.051Z,1.10
2022-09-23T21:02:37.342Z,1.48
2022-09-23T21:05:12.582Z,1.88
2022-09-23T21:07:44.664Z,1.45
2022-09-23T21:10:19.502Z,1.45
2022-09-23T21:12:52.963Z,1.33
2022-09-23T21:15:25.424Z,1.75
2022-09-23T21:17:57.482Z,1.73
2022-09-23T21:20:39.761Z,1.77
2022-09-23T21:23:12.166Z,1.42
2022-09-23T21:25:47.068Z,1.75
2022-09-23T21:28:19.227Z,1.65
2022-09-23T21:30:52.053Z,1.38
2022-09-23T21:33:24.648Z,1.92
2022-09-23T21:35:58.310Z,1.52
2022-09-23T21:38:33.535Z,1.40
2022-09-23T21:41:09.826Z,1.73
2022-09-23T21:43:55.646Z,1.60
2022-09-23T21:46:54.634Z,1.35
2022-09-23T21:49:28.271Z,1.90
2022-09-23T21:52:01.047Z,1.80
2022-09-23T21:54:33.005Z,1.27
2022-09-23T21:57:07.350Z,1.45
2022-09-23T21:59:39.087Z,1.58
2022-09-23T22:02:10.670Z,1.10
2022-09-23T22:04:42.496Z,1.73
2022-09-23T22:07:14.206Z,1.42
2022-09-23T22:09:47.185Z,1.00
2022-09-23T22:12:21.706Z,1.30
2022-09-23T22:14:53.625Z,1.20
2022-09-23T22:17:25.287Z,1.58
2022-09-23T22:19:57.466Z,1.60
2022-09-23T22:22:28.925Z,1.70
2022-09-23T22:25:00.655Z,1.35
2022-09-23T22:28:08.514Z,1.70
2022-09-23T22:31:16.313Z,1.17
2022-09-23T22:33:47.987Z,1.15
2022-09-23T22:36:19.865Z,1.63
2022-09-23T22:38:59.012Z,1.63
2022-09-23T22:41:31.704Z,1.88
2022-09-23T22:44:06.457Z,1.67
2022-09-23T22:46:38.379Z,1.00
2022-09-23T22:49:10.168Z,1.58
2022-09-23T22:51:42.044Z,1.25
2022-09-23T22:54:13.972Z,1.65
2022-09-23T22:56:45.787Z,1.98
2022-09-23T22:59:19.985Z,2.33
2022-09-23T23:01:53.017Z,1.60
2022-09-23T23:04:24.587Z,1.58
2022-09-23T23:06:56.406Z,1.45
2022-09-23T23:09:28.006Z,0.98
2022-09-23T23:11:59.914Z,1.35
2022-09-23T23:14:34.285Z,2.15
2022-09-23T23:17:07.784Z,1.42
2022-09-23T23:19:39.426Z,1.52
2022-09-23T23:22:11.146Z,1.70
2022-09-23T23:24:42.766Z,1.83
2022-09-23T23:27:14.526Z,1.40
2022-09-23T23:29:48.665Z,1.13
2022-09-23T23:32:20.492Z,1.85
2022-09-23T23:34:51.926Z,1.98
2022-09-23T23:37:23.784Z,1.08
2022-09-23T23:39:55.505Z,1.55
2022-09-23T23:42:27.508Z,1.98
2022-09-23T23:45:01.786Z,1.75
2022-09-23T23:47:33.486Z,1.42
2022-09-23T23:50:09.326Z,1.35
2022-09-23T23:52:41.585Z,1.30
2022-09-23T23:55:13.347Z,2.10
2022-09-23T23:57:45.447Z,1.75
